Yazd, Iran
Current Conditions -  °F | °C
As of 12:00 PM on Sunday 23 Nov 2014 (Local Time) from OIYY Reporting Station
Overcast Overcast  
Wind Chill: 70°   Ceiling: 20000
Heat Index: 70°   Visibility: 6mi
Dew Point: 32°   Wind: 5mph
Humidity: 25%   Direction: 120°ESE
Pressure: 29.97"   Gusts: NA
Location:  31.92°N, 54.37°E
Report Text: OIYY 230800Z 12004KT 9999 FEW035 OVC200 21/00 Q1015
Loading
Personal Weather Stations






























Interactive Weather Map New forecast layout! Learn more

10-Day Weather Forecast

Advertisements
Track Severe Weather on mobile